sensor_id;sensor_type;location;lat;lon;timestamp;temperature;humidity
72936;DHT22;61085;48.804;9.228;2022-12-29T00:00:05;9.60;97.20
72936;DHT22;61085;48.804;9.228;2022-12-29T00:02:31;9.70;97.20
72936;DHT22;61085;48.804;9.228;2022-12-29T00:04:57;9.60;97.40
72936;DHT22;61085;48.804;9.228;2022-12-29T00:07:22;9.60;97.40
72936;DHT22;61085;48.804;9.228;2022-12-29T00:09:48;9.50;97.90
72936;DHT22;61085;48.804;9.228;2022-12-29T00:12:14;9.40;98.10
72936;DHT22;61085;48.804;9.228;2022-12-29T00:14:40;9.50;98.00
72936;DHT22;61085;48.804;9.228;2022-12-29T00:17:24;9.50;97.90
72936;DHT22;61085;48.804;9.228;2022-12-29T00:19:49;9.40;98.40
72936;DHT22;61085;48.804;9.228;2022-12-29T00:22:34;9.40;98.30
72936;DHT22;61085;48.804;9.228;2022-12-29T00:25:18;9.40;98.30
72936;DHT22;61085;48.804;9.228;2022-12-29T00:28:03;9.40;98.40
72936;DHT22;61085;48.804;9.228;2022-12-29T00:30:47;9.40;98.60
72936;DHT22;61085;48.804;9.228;2022-12-29T00:33:32;9.50;98.10
72936;DHT22;61085;48.804;9.228;2022-12-29T00:36:21;9.60;97.90
72936;DHT22;61085;48.804;9.228;2022-12-29T00:38:51;9.60;98.00
72936;DHT22;61085;48.804;9.228;2022-12-29T00:41:36;9.50;98.20
72936;DHT22;61085;48.804;9.228;2022-12-29T00:44:21;9.50;98.20
72936;DHT22;61085;48.804;9.228;2022-12-29T00:46:46;9.50;98.50
72936;DHT22;61085;48.804;9.228;2022-12-29T00:49:13;9.40;98.70
72936;DHT22;61085;48.804;9.228;2022-12-29T00:54:25;9.30;99.30
72936;DHT22;61085;48.804;9.228;2022-12-29T00:56:52;9.40;99.20
72936;DHT22;61085;48.804;9.228;2022-12-29T00:59:18;9.30;99.30
72936;DHT22;61085;48.804;9.228;2022-12-29T01:01:46;9.30;99.60
72936;DHT22;61085;48.804;9.228;2022-12-29T01:04:13;9.30;99.60
72936;DHT22;61085;48.804;9.228;2022-12-29T01:06:39;9.20;99.70
72936;DHT22;61085;48.804;9.228;2022-12-29T01:09:06;9.50;99.60
72936;DHT22;61085;48.804;9.228;2022-12-29T01:11:50;9.30;99.60
72936;DHT22;61085;48.804;9.228;2022-12-29T01:14:18;9.30;99.60
72936;DHT22;61085;48.804;9.228;2022-12-29T01:16:44;9.20;99.60
72936;DHT22;61085;48.804;9.228;2022-12-29T01:19:10;9.20;99.60
72936;DHT22;61085;48.804;9.228;2022-12-29T01:21:35;9.20;99.90
72936;DHT22;61085;48.804;9.228;2022-12-29T01:24:01;9.20;99.90
72936;DHT22;61085;48.804;9.228;2022-12-29T01:26:27;9.40;99.90
72936;DHT22;61085;48.804;9.228;2022-12-29T01:28:52;9.20;99.90
72936;DHT22;61085;48.804;9.228;2022-12-29T01:31:18;9.30;99.80
72936;DHT22;61085;48.804;9.228;2022-12-29T01:33:47;9.20;99.90
72936;DHT22;61085;48.804;9.228;2022-12-29T01:36:14;9.20;99.90
72936;DHT22;61085;48.804;9.228;2022-12-29T01:38:41;9.30;99.80
72936;DHT22;61085;48.804;9.228;2022-12-29T01:41:08;9.30;99.90
72936;DHT22;61085;48.804;9.228;2022-12-29T01:43:49;9.30;99.90
72936;DHT22;61085;48.804;9.228;2022-12-29T01:46:22;9.40;99.80
72936;DHT22;61085;48.804;9.228;2022-12-29T01:51:25;9.40;99.50
72936;DHT22;61085;48.804;9.228;2022-12-29T01:53:53;9.40;99.90
72936;DHT22;61085;48.804;9.228;2022-12-29T01:56:20;9.40;99.90
72936;DHT22;61085;48.804;9.228;2022-12-29T01:58:49;9.30;99.90
72936;DHT22;61085;48.804;9.228;2022-12-29T02:01:19;9.40;99.90
72936;DHT22;61085;48.804;9.228;2022-12-29T02:03:46;9.40;99.90
72936;DHT22;61085;48.804;9.228;2022-12-29T02:06:21;9.50;99.50
72936;DHT22;61085;48.804;9.228;2022-12-29T02:08:50;9.50;99.40
72936;DHT22;61085;48.804;9.228;2022-12-29T02:11:16;9.60;99.20
72936;DHT22;61085;48.804;9.228;2022-12-29T02:13:42;9.70;98.80
72936;DHT22;61085;48.804;9.228;2022-12-29T02:22:12;9.60;99.00
72936;DHT22;61085;48.804;9.228;2022-12-29T02:25:06;9.70;98.60
72936;DHT22;61085;48.804;9.228;2022-12-29T02:33:18;9.50;99.30
72936;DHT22;61085;48.804;9.228;2022-12-29T02:35:48;9.50;99.40
72936;DHT22;61085;48.804;9.228;2022-12-29T02:41:15;9.50;99.50
72936;DHT22;61085;48.804;9.228;2022-12-29T02:44:16;9.50;99.40
72936;DHT22;61085;48.804;9.228;2022-12-29T02:47:35;9.60;99.30
72936;DHT22;61085;48.804;9.228;2022-12-29T02:50:19;9.60;99.40
72936;DHT22;61085;48.804;9.228;2022-12-29T02:53:12;9.60;99.10
72936;DHT22;61085;48.804;9.228;2022-12-29T02:55:36;9.70;98.80
72936;DHT22;61085;48.804;9.228;2022-12-29T02:58:20;9.80;98.50
72936;DHT22;61085;48.804;9.228;2022-12-29T03:03:52;9.90;98.00
72936;DHT22;61085;48.804;9.228;2022-12-29T03:12:00;10.00;97.40
72936;DHT22;61085;48.804;9.228;2022-12-29T03:17:51;10.30;96.60
72936;DHT22;61085;48.804;9.228;2022-12-29T03:20:26;10.30;96.20
72936;DHT22;61085;48.804;9.228;2022-12-29T03:22:59;10.30;96.10
72936;DHT22;61085;48.804;9.228;2022-12-29T03:25:47;10.30;96.20
72936;DHT22;61085;48.804;9.228;2022-12-29T03:28:41;10.40;95.80
72936;DHT22;61085;48.804;9.228;2022-12-29T03:31:10;10.40;95.70
72936;DHT22;61085;48.804;9.228;2022-12-29T03:33:38;10.50;95.70
72936;DHT22;61085;48.804;9.228;2022-12-29T03:36:07;10.60;95.20
72936;DHT22;61085;48.804;9.228;2022-12-29T03:38:47;10.60;95.10
72936;DHT22;61085;48.804;9.228;2022-12-29T03:41:20;10.70;95.20
72936;DHT22;61085;48.804;9.228;2022-12-29T03:43:48;10.60;95.10
72936;DHT22;61085;48.804;9.228;2022-12-29T03:46:13;10.60;95.10
72936;DHT22;61085;48.804;9.228;2022-12-29T03:48:39;10.60;95.00
72936;DHT22;61085;48.804;9.228;2022-12-29T03:51:04;10.80;94.80
72936;DHT22;61085;48.804;9.228;2022-12-29T03:53:30;10.90;94.30
72936;DHT22;61085;48.804;9.228;2022-12-29T03:55:56;10.90;94.10
72936;DHT22;61085;48.804;9.228;2022-12-29T03:58:21;11.00;93.80
72936;DHT22;61085;48.804;9.228;2022-12-29T04:00:47;11.00;93.60
72936;DHT22;61085;48.804;9.228;2022-12-29T04:03:12;11.20;93.20
72936;DHT22;61085;48.804;9.228;2022-12-29T04:05:38;11.20;93.40
72936;DHT22;61085;48.804;9.228;2022-12-29T04:08:04;11.20;93.50
72936;DHT22;61085;48.804;9.228;2022-12-29T04:10:29;11.10;93.80
72936;DHT22;61085;48.804;9.228;2022-12-29T04:12:55;11.20;93.90
72936;DHT22;61085;48.804;9.228;2022-12-29T04:15:20;11.30;93.60
72936;DHT22;61085;48.804;9.228;2022-12-29T04:17:46;11.40;93.70
72936;DHT22;61085;48.804;9.228;2022-12-29T04:20:11;11.40;93.50
72936;DHT22;61085;48.804;9.228;2022-12-29T04:23:03;11.40;93.60
72936;DHT22;61085;48.804;9.228;2022-12-29T04:25:30;11.40;93.60
72936;DHT22;61085;48.804;9.228;2022-12-29T04:27:56;11.40;93.40
72936;DHT22;61085;48.804;9.228;2022-12-29T04:30:22;11.50;93.40
72936;DHT22;61085;48.804;9.228;2022-12-29T04:32:47;11.50;93.40
72936;DHT22;61085;48.804;9.228;2022-12-29T04:35:13;11.60;93.60
72936;DHT22;61085;48.804;9.228;2022-12-29T04:37:39;11.60;93.70
72936;DHT22;61085;48.804;9.228;2022-12-29T04:40:05;11.40;94.00
72936;DHT22;61085;48.804;9.228;2022-12-29T04:42:30;11.40;94.30
72936;DHT22;61085;48.804;9.228;2022-12-29T04:44:56;11.30;94.60
72936;DHT22;61085;48.804;9.228;2022-12-29T04:47:21;11.40;94.50
72936;DHT22;61085;48.804;9.228;2022-12-29T04:49:47;11.50;94.30
72936;DHT22;61085;48.804;9.228;2022-12-29T04:52:13;11.60;94.30
72936;DHT22;61085;48.804;9.228;2022-12-29T04:54:38;11.60;94.30
72936;DHT22;61085;48.804;9.228;2022-12-29T04:57:05;11.70;94.40
72936;DHT22;61085;48.804;9.228;2022-12-29T04:59:30;11.70;94.50
72936;DHT22;61085;48.804;9.228;2022-12-29T05:01:56;11.60;95.00
72936;DHT22;61085;48.804;9.228;2022-12-29T05:04:21;11.60;95.30
72936;DHT22;61085;48.804;9.228;2022-12-29T05:06:47;11.60;95.10
72936;DHT22;61085;48.804;9.228;2022-12-29T05:09:13;11.50;95.70
72936;DHT22;61085;48.804;9.228;2022-12-29T05:11:38;11.50;95.70
72936;DHT22;61085;48.804;9.228;2022-12-29T05:14:04;11.50;95.80
72936;DHT22;61085;48.804;9.228;2022-12-29T05:16:30;11.60;95.80
72936;DHT22;61085;48.804;9.228;2022-12-29T05:18:58;11.60;96.00
72936;DHT22;61085;48.804;9.228;2022-12-29T05:21:24;11.60;96.00
72936;DHT22;61085;48.804;9.228;2022-12-29T05:23:50;11.60;95.70
72936;DHT22;61085;48.804;9.228;2022-12-29T05:26:16;11.70;95.70
72936;DHT22;61085;48.804;9.228;2022-12-29T05:28:41;11.70;95.70
72936;DHT22;61085;48.804;9.228;2022-12-29T05:31:07;11.70;95.80
72936;DHT22;61085;48.804;9.228;2022-12-29T05:33:32;11.70;95.70
72936;DHT22;61085;48.804;9.228;2022-12-29T05:36:04;11.70;95.50
72936;DHT22;61085;48.804;9.228;2022-12-29T05:38:30;11.80;95.70
72936;DHT22;61085;48.804;9.228;2022-12-29T05:40:56;11.80;95.30
72936;DHT22;61085;48.804;9.228;2022-12-29T05:43:21;11.90;95.20
72936;DHT22;61085;48.804;9.228;2022-12-29T05:45:49;11.80;95.10
72936;DHT22;61085;48.804;9.228;2022-12-29T05:48:15;11.90;95.00
72936;DHT22;61085;48.804;9.228;2022-12-29T05:50:41;11.90;94.90
72936;DHT22;61085;48.804;9.228;2022-12-29T05:53:06;11.90;95.10
72936;DHT22;61085;48.804;9.228;2022-12-29T05:55:32;11.80;95.30
72936;DHT22;61085;48.804;9.228;2022-12-29T05:57:58;11.80;95.40
72936;DHT22;61085;48.804;9.228;2022-12-29T06:00:23;11.80;95.20
72936;DHT22;61085;48.804;9.228;2022-12-29T06:02:49;11.90;94.90
72936;DHT22;61085;48.804;9.228;2022-12-29T06:05:15;11.90;94.60
72936;DHT22;61085;48.804;9.228;2022-12-29T06:07:40;11.90;94.50
72936;DHT22;61085;48.804;9.228;2022-12-29T06:10:06;12.00;94.30
72936;DHT22;61085;48.804;9.228;2022-12-29T06:12:32;11.90;94.20
72936;DHT22;61085;48.804;9.228;2022-12-29T06:14:58;12.10;94.40
72936;DHT22;61085;48.804;9.228;2022-12-29T06:17:23;12.00;94.20
72936;DHT22;61085;48.804;9.228;2022-12-29T06:19:49;12.00;94.10
72936;DHT22;61085;48.804;9.228;2022-12-29T06:22:14;11.90;93.70
72936;DHT22;61085;48.804;9.228;2022-12-29T06:24:40;12.00;93.60
72936;DHT22;61085;48.804;9.228;2022-12-29T06:27:06;12.00;93.70
72936;DHT22;61085;48.804;9.228;2022-12-29T06:29:31;12.00;93.50
72936;DHT22;61085;48.804;9.228;2022-12-29T06:31:57;12.00;93.50
72936;DHT22;61085;48.804;9.228;2022-12-29T06:34:24;12.00;93.60
72936;DHT22;61085;48.804;9.228;2022-12-29T06:36:51;12.00;93.40
72936;DHT22;61085;48.804;9.228;2022-12-29T06:39:16;11.80;93.40
72936;DHT22;61085;48.804;9.228;2022-12-29T06:41:42;11.80;93.40
72936;DHT22;61085;48.804;9.228;2022-12-29T06:44:08;11.80;93.40
72936;DHT22;61085;48.804;9.228;2022-12-29T06:46:33;11.90;93.30
72936;DHT22;61085;48.804;9.228;2022-12-29T06:48:59;11.80;93.20
72936;DHT22;61085;48.804;9.228;2022-12-29T06:51:24;11.60;93.10
72936;DHT22;61085;48.804;9.228;2022-12-29T06:53:50;11.70;93.20
72936;DHT22;61085;48.804;9.228;2022-12-29T06:56:15;11.70;92.80
72936;DHT22;61085;48.804;9.228;2022-12-29T06:58:41;11.60;92.90
72936;DHT22;61085;48.804;9.228;2022-12-29T07:01:06;11.50;92.70
72936;DHT22;61085;48.804;9.228;2022-12-29T07:03:32;11.50;92.60
72936;DHT22;61085;48.804;9.228;2022-12-29T07:05:58;11.50;92.80
72936;DHT22;61085;48.804;9.228;2022-12-29T07:08:24;11.50;92.30
72936;DHT22;61085;48.804;9.228;2022-12-29T07:10:49;11.50;92.50
72936;DHT22;61085;48.804;9.228;2022-12-29T07:13:15;11.40;92.40
72936;DHT22;61085;48.804;9.228;2022-12-29T07:15:40;11.30;92.70
72936;DHT22;61085;48.804;9.228;2022-12-29T07:18:06;11.40;92.50
72936;DHT22;61085;48.804;9.228;2022-12-29T07:20:32;11.40;92.70
72936;DHT22;61085;48.804;9.228;2022-12-29T07:22:58;11.40;92.90
72936;DHT22;61085;48.804;9.228;2022-12-29T07:25:24;11.30;92.90
72936;DHT22;61085;48.804;9.228;2022-12-29T07:27:53;11.40;92.60
72936;DHT22;61085;48.804;9.228;2022-12-29T07:30:19;11.30;92.90
72936;DHT22;61085;48.804;9.228;2022-12-29T07:32:44;11.30;92.90
72936;DHT22;61085;48.804;9.228;2022-12-29T07:35:10;11.30;93.20
72936;DHT22;61085;48.804;9.228;2022-12-29T07:37:36;11.60;93.40
72936;DHT22;61085;48.804;9.228;2022-12-29T07:40:02;11.30;93.50
72936;DHT22;61085;48.804;9.228;2022-12-29T07:42:28;11.30;93.20
72936;DHT22;61085;48.804;9.228;2022-12-29T07:44:54;11.30;93.50
72936;DHT22;61085;48.804;9.228;2022-12-29T07:47:19;11.30;93.50
72936;DHT22;61085;48.804;9.228;2022-12-29T07:49:45;11.40;93.30
72936;DHT22;61085;48.804;9.228;2022-12-29T07:52:11;11.50;93.00
72936;DHT22;61085;48.804;9.228;2022-12-29T07:54:36;11.40;93.00
72936;DHT22;61085;48.804;9.228;2022-12-29T07:57:02;11.50;93.20
72936;DHT22;61085;48.804;9.228;2022-12-29T07:59:27;11.50;93.30
72936;DHT22;61085;48.804;9.228;2022-12-29T08:01:53;11.50;93.40
72936;DHT22;61085;48.804;9.228;2022-12-29T08:04:19;11.50;93.40
72936;DHT22;61085;48.804;9.228;2022-12-29T08:06:45;11.60;93.30
72936;DHT22;61085;48.804;9.228;2022-12-29T08:09:11;11.70;93.00
72936;DHT22;61085;48.804;9.228;2022-12-29T08:11:36;11.70;92.90
72936;DHT22;61085;48.804;9.228;2022-12-29T08:14:02;11.80;92.70
72936;DHT22;61085;48.804;9.228;2022-12-29T08:16:28;11.90;92.20
72936;DHT22;61085;48.804;9.228;2022-12-29T08:18:54;12.00;92.00
72936;DHT22;61085;48.804;9.228;2022-12-29T08:21:20;12.00;92.00
72936;DHT22;61085;48.804;9.228;2022-12-29T08:23:47;12.00;91.70
72936;DHT22;61085;48.804;9.228;2022-12-29T08:26:12;12.00;92.00
72936;DHT22;61085;48.804;9.228;2022-12-29T08:28:38;12.00;91.90
72936;DHT22;61085;48.804;9.228;2022-12-29T08:31:04;12.10;91.90
72936;DHT22;61085;48.804;9.228;2022-12-29T08:33:30;12.00;92.10
72936;DHT22;61085;48.804;9.228;2022-12-29T08:36:04;12.10;91.80
72936;DHT22;61085;48.804;9.228;2022-12-29T08:38:30;12.10;92.00
72936;DHT22;61085;48.804;9.228;2022-12-29T08:40:57;12.20;92.20
72936;DHT22;61085;48.804;9.228;2022-12-29T08:43:23;12.10;92.20
72936;DHT22;61085;48.804;9.228;2022-12-29T08:45:52;12.10;92.30
72936;DHT22;61085;48.804;9.228;2022-12-29T08:48:17;12.20;91.70
72936;DHT22;61085;48.804;9.228;2022-12-29T08:50:45;12.20;91.50
72936;DHT22;61085;48.804;9.228;2022-12-29T08:53:11;12.30;91.40
72936;DHT22;61085;48.804;9.228;2022-12-29T08:55:37;12.30;91.40
72936;DHT22;61085;48.804;9.228;2022-12-29T08:58:03;12.40;91.30
72936;DHT22;61085;48.804;9.228;2022-12-29T09:00:28;12.30;91.50
72936;DHT22;61085;48.804;9.228;2022-12-29T09:02:54;12.40;91.50
72936;DHT22;61085;48.804;9.228;2022-12-29T09:05:20;12.40;91.60
72936;DHT22;61085;48.804;9.228;2022-12-29T09:07:45;12.40;91.60
72936;DHT22;61085;48.804;9.228;2022-12-29T09:10:11;12.40;91.70
72936;DHT22;61085;48.804;9.228;2022-12-29T09:12:37;12.40;91.60
72936;DHT22;61085;48.804;9.228;2022-12-29T09:15:04;12.40;91.70
72936;DHT22;61085;48.804;9.228;2022-12-29T09:17:30;12.50;91.70
72936;DHT22;61085;48.804;9.228;2022-12-29T09:20:16;12.40;92.00
72936;DHT22;61085;48.804;9.228;2022-12-29T09:22:42;12.40;92.10
72936;DHT22;61085;48.804;9.228;2022-12-29T09:25:09;12.40;92.20
72936;DHT22;61085;48.804;9.228;2022-12-29T09:27:35;12.40;92.10
72936;DHT22;61085;48.804;9.228;2022-12-29T09:30:02;12.40;92.10
72936;DHT22;61085;48.804;9.228;2022-12-29T09:32:28;12.50;91.70
72936;DHT22;61085;48.804;9.228;2022-12-29T09:34:53;12.40;91.60
72936;DHT22;61085;48.804;9.228;2022-12-29T09:37:19;12.40;91.40
72936;DHT22;61085;48.804;9.228;2022-12-29T09:39:45;12.50;91.70
72936;DHT22;61085;48.804;9.228;2022-12-29T09:45:00;12.60;91.20
72936;DHT22;61085;48.804;9.228;2022-12-29T09:47:29;12.80;91.00
72936;DHT22;61085;48.804;9.228;2022-12-29T09:50:05;12.80;90.30
72936;DHT22;61085;48.804;9.228;2022-12-29T09:52:58;12.90;90.30
72936;DHT22;61085;48.804;9.228;2022-12-29T09:55:38;13.00;89.60
72936;DHT22;61085;48.804;9.228;2022-12-29T09:58:28;13.10;89.70
72936;DHT22;61085;48.804;9.228;2022-12-29T10:01:04;13.30;88.00
72936;DHT22;61085;48.804;9.228;2022-12-29T10:03:51;13.50;86.70
72936;DHT22;61085;48.804;9.228;2022-12-29T10:06:38;13.70;85.70
72936;DHT22;61085;48.804;9.228;2022-12-29T10:09:24;13.70;84.70
72936;DHT22;61085;48.804;9.228;2022-12-29T10:15:14;13.50;85.80
72936;DHT22;61085;48.804;9.228;2022-12-29T10:17:28;13.50;86.50
72936;DHT22;61085;48.804;9.228;2022-12-29T10:20:19;13.50;87.50
72936;DHT22;61085;48.804;9.228;2022-12-29T10:25:41;13.40;88.10
72936;DHT22;61085;48.804;9.228;2022-12-29T10:31:00;13.40;89.00
72936;DHT22;61085;48.804;9.228;2022-12-29T10:33:36;13.40;88.60
72936;DHT22;61085;48.804;9.228;2022-12-29T10:36:16;13.40;89.50
72936;DHT22;61085;48.804;9.228;2022-12-29T10:41:23;13.30;89.90
72936;DHT22;61085;48.804;9.228;2022-12-29T10:43:54;13.40;89.60
72936;DHT22;61085;48.804;9.228;2022-12-29T10:46:33;13.50;90.00
72936;DHT22;61085;48.804;9.228;2022-12-29T10:49:00;13.70;88.40
72936;DHT22;61085;48.804;9.228;2022-12-29T10:51:39;13.70;87.60
72936;DHT22;61085;48.804;9.228;2022-12-29T10:54:23;13.70;87.90
72936;DHT22;61085;48.804;9.228;2022-12-29T10:56:59;13.80;87.70
72936;DHT22;61085;48.804;9.228;2022-12-29T10:59:29;14.00;87.50
72936;DHT22;61085;48.804;9.228;2022-12-29T11:07:05;14.70;83.00
72936;DHT22;61085;48.804;9.228;2022-12-29T11:09:34;14.70;82.50
72936;DHT22;61085;48.804;9.228;2022-12-29T11:14:45;14.80;81.80
72936;DHT22;61085;48.804;9.228;2022-12-29T11:17:15;14.70;82.40
72936;DHT22;61085;48.804;9.228;2022-12-29T11:19:41;14.60;81.80
72936;DHT22;61085;48.804;9.228;2022-12-29T11:22:24;14.60;83.20
72936;DHT22;61085;48.804;9.228;2022-12-29T11:24:54;14.60;82.80
72936;DHT22;61085;48.804;9.228;2022-12-29T11:27:22;14.60;82.40
72936;DHT22;61085;48.804;9.228;2022-12-29T11:29:50;14.60;83.50
72936;DHT22;61085;48.804;9.228;2022-12-29T11:34:46;14.50;83.70
72936;DHT22;61085;48.804;9.228;2022-12-29T11:39:59;14.50;85.50
72936;DHT22;61085;48.804;9.228;2022-12-29T11:42:57;14.50;84.50
72936;DHT22;61085;48.804;9.228;2022-12-29T11:45:26;14.50;84.50
72936;DHT22;61085;48.804;9.228;2022-12-29T11:47:56;14.30;83.90
72936;DHT22;61085;48.804;9.228;2022-12-29T11:50:28;14.30;85.50
72936;DHT22;61085;48.804;9.228;2022-12-29T11:52:59;14.30;88.30
72936;DHT22;61085;48.804;9.228;2022-12-29T11:55:27;14.20;91.50
72936;DHT22;61085;48.804;9.228;2022-12-29T11:57:55;14.20;92.60
72936;DHT22;61085;48.804;9.228;2022-12-29T12:00:24;14.10;93.30
72936;DHT22;61085;48.804;9.228;2022-12-29T12:03:03;14.00;93.30
72936;DHT22;61085;48.804;9.228;2022-12-29T12:05:54;14.00;93.20
72936;DHT22;61085;48.804;9.228;2022-12-29T12:08:57;13.90;94.80
72936;DHT22;61085;48.804;9.228;2022-12-29T12:11:29;13.80;96.50
72936;DHT22;61085;48.804;9.228;2022-12-29T12:14:21;13.70;97.10
72936;DHT22;61085;48.804;9.228;2022-12-29T12:16:50;13.80;96.90
72936;DHT22;61085;48.804;9.228;2022-12-29T12:21:47;13.60;97.60
72936;DHT22;61085;48.804;9.228;2022-12-29T12:24:34;13.60;97.50
72936;DHT22;61085;48.804;9.228;2022-12-29T12:27:29;13.60;97.80
72936;DHT22;61085;48.804;9.228;2022-12-29T12:30:01;13.60;97.40
72936;DHT22;61085;48.804;9.228;2022-12-29T12:34:53;13.60;97.40
72936;DHT22;61085;48.804;9.228;2022-12-29T12:37:41;13.60;96.30
72936;DHT22;61085;48.804;9.228;2022-12-29T13:00:13;13.90;96.90
72936;DHT22;61085;48.804;9.228;2022-12-29T13:05:50;14.00;96.70
72936;DHT22;61085;48.804;9.228;2022-12-29T13:10:54;14.10;96.40
72936;DHT22;61085;48.804;9.228;2022-12-29T13:19:10;14.20;96.60
72936;DHT22;61085;48.804;9.228;2022-12-29T13:21:59;14.20;96.70
72936;DHT22;61085;48.804;9.228;2022-12-29T13:30:20;14.20;96.60
72936;DHT22;61085;48.804;9.228;2022-12-29T13:33:25;14.30;96.60
72936;DHT22;61085;48.804;9.228;2022-12-29T13:36:07;14.00;96.60
72936;DHT22;61085;48.804;9.228;2022-12-29T13:38:36;13.90;97.30
72936;DHT22;61085;48.804;9.228;2022-12-29T13:41:09;14.00;96.90
72936;DHT22;61085;48.804;9.228;2022-12-29T13:43:39;13.80;96.70
72936;DHT22;61085;48.804;9.228;2022-12-29T13:46:18;13.80;97.30
72936;DHT22;61085;48.804;9.228;2022-12-29T13:48:56;13.80;98.10
72936;DHT22;61085;48.804;9.228;2022-12-29T13:51:24;13.80;97.50
72936;DHT22;61085;48.804;9.228;2022-12-29T13:56:56;13.70;97.70
72936;DHT22;61085;48.804;9.228;2022-12-29T13:59:50;13.60;98.00
72936;DHT22;61085;48.804;9.228;2022-12-29T14:07:44;13.60;98.50
72936;DHT22;61085;48.804;9.228;2022-12-29T14:10:28;13.50;98.90
72936;DHT22;61085;48.804;9.228;2022-12-29T14:15:56;13.50;99.20
72936;DHT22;61085;48.804;9.228;2022-12-29T14:18:26;13.40;99.50
72936;DHT22;61085;48.804;9.228;2022-12-29T14:21:02;13.50;99.50
72936;DHT22;61085;48.804;9.228;2022-12-29T14:23:44;13.50;99.70
72936;DHT22;61085;48.804;9.228;2022-12-29T14:28:47;13.50;99.60
72936;DHT22;61085;48.804;9.228;2022-12-29T14:36:40;13.40;99.90
72936;DHT22;61085;48.804;9.228;2022-12-29T14:42:19;13.40;99.90
72936;DHT22;61085;48.804;9.228;2022-12-29T14:45:06;13.40;99.90
72936;DHT22;61085;48.804;9.228;2022-12-29T14:47:43;13.30;99.90
72936;DHT22;61085;48.804;9.228;2022-12-29T14:52:47;13.10;99.90
72936;DHT22;61085;48.804;9.228;2022-12-29T14:57:51;13.10;99.90
72936;DHT22;61085;48.804;9.228;2022-12-29T15:00:36;13.10;99.90
72936;DHT22;61085;48.804;9.228;2022-12-29T15:03:05;13.20;99.90
72936;DHT22;61085;48.804;9.228;2022-12-29T15:05:44;13.10;99.90
72936;DHT22;61085;48.804;9.228;2022-12-29T15:08:13;13.10;99.90
72936;DHT22;61085;48.804;9.228;2022-12-29T15:10:49;13.00;99.90
72936;DHT22;61085;48.804;9.228;2022-12-29T15:13:22;13.00;99.90
72936;DHT22;61085;48.804;9.228;2022-12-29T15:15:48;12.90;99.90
72936;DHT22;61085;48.804;9.228;2022-12-29T15:18:29;12.90;99.90
72936;DHT22;61085;48.804;9.228;2022-12-29T15:21:06;12.90;99.90
72936;DHT22;61085;48.804;9.228;2022-12-29T15:23:33;12.90;99.90
72936;DHT22;61085;48.804;9.228;2022-12-29T15:26:03;12.90;99.90
72936;DHT22;61085;48.804;9.228;2022-12-29T15:28:49;12.80;99.90
72936;DHT22;61085;48.804;9.228;2022-12-29T15:31:24;12.80;99.90
72936;DHT22;61085;48.804;9.228;2022-12-29T15:33:55;12.80;99.90
72936;DHT22;61085;48.804;9.228;2022-12-29T15:36:28;12.80;99.90
72936;DHT22;61085;48.804;9.228;2022-12-29T15:38:54;12.80;99.90
72936;DHT22;61085;48.804;9.228;2022-12-29T15:46:33;12.80;99.90
72936;DHT22;61085;48.804;9.228;2022-12-29T15:48:59;12.80;99.90
72936;DHT22;61085;48.804;9.228;2022-12-29T15:51:37;12.90;99.90
72936;DHT22;61085;48.804;9.228;2022-12-29T15:54:03;12.90;99.90
72936;DHT22;61085;48.804;9.228;2022-12-29T15:56:30;12.90;99.90
72936;DHT22;61085;48.804;9.228;2022-12-29T15:58:57;12.70;99.90
72936;DHT22;61085;48.804;9.228;2022-12-29T16:03:49;12.40;99.90
72936;DHT22;61085;48.804;9.228;2022-12-29T16:09:16;12.10;99.90
72936;DHT22;61085;48.804;9.228;2022-12-29T16:11:49;12.00;99.90
72936;DHT22;61085;48.804;9.228;2022-12-29T16:14:24;11.90;99.90
72936;DHT22;61085;48.804;9.228;2022-12-29T16:16:57;11.80;99.90
72936;DHT22;61085;48.804;9.228;2022-12-29T16:19:32;11.90;99.90
72936;DHT22;61085;48.804;9.228;2022-12-29T16:21:59;11.90;99.90
72936;DHT22;61085;48.804;9.228;2022-12-29T16:24:30;11.90;99.90
72936;DHT22;61085;48.804;9.228;2022-12-29T16:26:59;11.80;99.90
72936;DHT22;61085;48.804;9.228;2022-12-29T16:29:28;11.80;99.90
72936;DHT22;61085;48.804;9.228;2022-12-29T16:31:56;11.80;99.90
72936;DHT22;61085;48.804;9.228;2022-12-29T16:37:31;11.70;99.90
72936;DHT22;61085;48.804;9.228;2022-12-29T16:50:37;11.60;99.90
72936;DHT22;61085;48.804;9.228;2022-12-29T16:53:05;11.60;99.90
72936;DHT22;61085;48.804;9.228;2022-12-29T16:55:31;11.50;99.90
72936;DHT22;61085;48.804;9.228;2022-12-29T16:57:58;11.50;99.90
72936;DHT22;61085;48.804;9.228;2022-12-29T17:00:27;11.50;99.90
72936;DHT22;61085;48.804;9.228;2022-12-29T17:02:57;11.50;99.90
72936;DHT22;61085;48.804;9.228;2022-12-29T17:05:23;11.60;99.90
72936;DHT22;61085;48.804;9.228;2022-12-29T17:07:49;11.50;99.90
72936;DHT22;61085;48.804;9.228;2022-12-29T17:10:16;11.60;99.90
72936;DHT22;61085;48.804;9.228;2022-12-29T17:12:43;11.60;99.90
72936;DHT22;61085;48.804;9.228;2022-12-29T17:17:49;11.60;99.90
72936;DHT22;61085;48.804;9.228;2022-12-29T17:20:23;11.40;99.90
72936;DHT22;61085;48.804;9.228;2022-12-29T17:22:50;11.30;99.90
72936;DHT22;61085;48.804;9.228;2022-12-29T17:25:23;11.20;99.90
72936;DHT22;61085;48.804;9.228;2022-12-29T17:27:53;11.20;99.90
72936;DHT22;61085;48.804;9.228;2022-12-29T17:30:21;11.20;99.90
72936;DHT22;61085;48.804;9.228;2022-12-29T17:33:01;11.10;99.90
72936;DHT22;61085;48.804;9.228;2022-12-29T17:35:28;11.10;99.90
72936;DHT22;61085;48.804;9.228;2022-12-29T17:37:54;11.20;99.90
72936;DHT22;61085;48.804;9.228;2022-12-29T17:40:22;11.10;99.90
72936;DHT22;61085;48.804;9.228;2022-12-29T17:42:51;11.10;99.90
72936;DHT22;61085;48.804;9.228;2022-12-29T17:45:20;11.00;99.90
72936;DHT22;61085;48.804;9.228;2022-12-29T17:47:47;11.20;99.90
72936;DHT22;61085;48.804;9.228;2022-12-29T17:50:15;11.00;99.90
72936;DHT22;61085;48.804;9.228;2022-12-29T17:52:42;11.20;99.90
72936;DHT22;61085;48.804;9.228;2022-12-29T17:55:17;11.00;99.90
72936;DHT22;61085;48.804;9.228;2022-12-29T17:57:43;11.00;99.90
72936;DHT22;61085;48.804;9.228;2022-12-29T18:00:18;11.00;99.90
72936;DHT22;61085;48.804;9.228;2022-12-29T18:02:44;11.00;99.90
72936;DHT22;61085;48.804;9.228;2022-12-29T18:05:25;11.00;99.90
72936;DHT22;61085;48.804;9.228;2022-12-29T18:07:53;10.90;99.90
72936;DHT22;61085;48.804;9.228;2022-12-29T18:10:20;10.90;99.90
72936;DHT22;61085;48.804;9.228;2022-12-29T18:12:47;10.90;99.90
72936;DHT22;61085;48.804;9.228;2022-12-29T18:15:24;10.90;99.90
72936;DHT22;61085;48.804;9.228;2022-12-29T18:17:54;10.90;99.90
72936;DHT22;61085;48.804;9.228;2022-12-29T18:20:21;11.00;99.90
72936;DHT22;61085;48.804;9.228;2022-12-29T18:22:46;11.00;99.90
72936;DHT22;61085;48.804;9.228;2022-12-29T18:25:22;10.90;99.90
72936;DHT22;61085;48.804;9.228;2022-12-29T18:27:49;11.00;99.90